createdAt,value
2023-05-19T00:00:55.489Z,2.20
2023-05-19T00:02:21.628Z,3.85
2023-05-19T00:03:27.026Z,2.22
2023-05-19T00:04:32.102Z,2.78
2023-05-19T00:05:47.274Z,2.58
2023-05-19T00:06:55.188Z,4.28
2023-05-19T00:08:02.072Z,2.20
2023-05-19T00:09:10.614Z,3.30
2023-05-19T00:10:16.743Z,3.70
2023-05-19T00:11:23.822Z,2.53
2023-05-19T00:12:30.345Z,2.90
2023-05-19T00:13:36.489Z,2.83
2023-05-19T00:14:40.744Z,3.00
2023-05-19T00:16:03.688Z,2.70
2023-05-19T00:17:09.771Z,4.80
2023-05-19T00:18:17.866Z,3.00
2023-05-19T00:19:24.987Z,4.00
2023-05-19T00:20:33.163Z,4.95
2023-05-19T00:21:38.860Z,3.58
2023-05-19T00:23:03.511Z,2.33
2023-05-19T00:24:07.912Z,3.67
2023-05-19T00:25:14.792Z,3.08
2023-05-19T00:26:19.276Z,3.05
2023-05-19T00:27:25.210Z,2.60
2023-05-19T00:28:46.894Z,3.00
2023-05-19T00:29:50.644Z,3.97
2023-05-19T00:30:55.681Z,5.43
2023-05-19T00:32:00.164Z,2.67
2023-05-19T00:33:07.999Z,2.55
2023-05-19T00:34:13.390Z,3.30
2023-05-19T00:35:20.492Z,5.53
2023-05-19T00:36:26.749Z,2.65
2023-05-19T00:37:34.032Z,4.82
2023-05-19T00:38:39.685Z,3.50
2023-05-19T00:39:44.488Z,2.83
2023-05-19T00:40:47.537Z,2.85
2023-05-19T00:41:52.094Z,2.90
2023-05-19T00:42:56.784Z,2.70
2023-05-19T00:44:07.026Z,2.90
2023-05-19T00:45:12.767Z,2.95
2023-05-19T00:46:18.200Z,2.92
2023-05-19T00:47:23.031Z,3.03
2023-05-19T00:48:30.059Z,3.65
2023-05-19T00:49:36.229Z,5.00
2023-05-19T00:50:45.949Z,3.30
2023-05-19T00:51:52.966Z,3.15
2023-05-19T00:52:59.410Z,2.47
2023-05-19T00:54:05.366Z,3.45
2023-05-19T00:55:15.896Z,6.00
2023-05-19T00:56:24.205Z,3.15
2023-05-19T00:57:50.101Z,4.72
2023-05-19T00:58:56.438Z,4.25
2023-05-19T01:00:22.118Z,5.10
2023-05-19T01:01:29.058Z,3.35
2023-05-19T01:02:34.118Z,4.45
2023-05-19T01:03:41.301Z,5.63
2023-05-19T01:04:47.188Z,4.10
2023-05-19T01:05:54.640Z,3.75
2023-05-19T01:06:59.796Z,3.72
2023-05-19T01:08:05.137Z,3.10
2023-05-19T01:09:10.340Z,9.20
2023-05-19T01:10:14.751Z,3.45
2023-05-19T01:11:20.400Z,7.13
2023-05-19T01:12:24.270Z,4.70
2023-05-19T01:13:31.740Z,3.15
2023-05-19T01:14:36.662Z,6.53
2023-05-19T01:16:00.446Z,4.25
2023-05-19T01:17:17.581Z,4.55
2023-05-19T01:18:31.329Z,3.05
2023-05-19T01:20:10.064Z,6.07
2023-05-19T01:21:52.218Z,3.13
2023-05-19T01:23:15.643Z,3.83
2023-05-19T01:24:36.445Z,3.97
2023-05-19T01:26:18.857Z,3.17
2023-05-19T01:27:43.496Z,5.68
2023-05-19T01:29:18.838Z,3.83
2023-05-19T01:30:32.216Z,3.08
2023-05-19T01:31:42.185Z,2.60
2023-05-19T01:32:49.480Z,5.60
2023-05-19T01:34:05.574Z,5.32
2023-05-19T01:35:14.093Z,5.82
2023-05-19T01:36:39.402Z,3.88
2023-05-19T01:37:46.297Z,4.00
2023-05-19T01:38:55.565Z,3.38
2023-05-19T01:40:00.458Z,3.17
2023-05-19T01:41:09.130Z,3.42
2023-05-19T01:42:15.174Z,6.03
2023-05-19T01:43:24.017Z,3.53
2023-05-19T01:44:28.784Z,2.92
2023-05-19T01:45:38.024Z,2.80
2023-05-19T01:46:44.204Z,3.00
2023-05-19T01:47:51.415Z,4.07
2023-05-19T01:48:58.105Z,3.05
2023-05-19T01:50:02.422Z,4.38
2023-05-19T01:51:10.719Z,3.55
2023-05-19T01:52:16.501Z,3.33
2023-05-19T01:53:22.380Z,4.93
2023-05-19T01:54:26.479Z,7.85
2023-05-19T01:55:30.980Z,7.35
2023-05-19T01:56:47.527Z,4.68
2023-05-19T01:58:06.175Z,4.22
2023-05-19T01:59:29.407Z,3.10
2023-05-19T02:00:47.867Z,5.55
2023-05-19T02:01:55.640Z,11.38
2023-05-19T02:03:11.642Z,7.25
2023-05-19T02:04:23.359Z,3.92
2023-05-19T02:05:38.094Z,7.57
2023-05-19T02:06:48.052Z,7.07
2023-05-19T02:08:04.211Z,4.70
2023-05-19T02:09:15.378Z,3.72
2023-05-19T02:10:26.596Z,10.63
2023-05-19T02:11:38.033Z,7.18
2023-05-19T02:12:42.960Z,7.72
2023-05-19T02:14:15.876Z,4.45
2023-05-19T02:15:27.531Z,6.25
2023-05-19T02:16:37.209Z,5.72
2023-05-19T02:17:48.523Z,14.07
2023-05-19T02:18:54.084Z,7.57
2023-05-19T02:19:58.488Z,15.57
2023-05-19T02:21:03.485Z,6.53
2023-05-19T02:22:08.442Z,6.50
2023-05-19T02:23:12.374Z,11.30
2023-05-19T02:24:18.621Z,6.22
2023-05-19T02:25:24.694Z,5.97
2023-05-19T02:26:29.287Z,3.50
2023-05-19T02:27:33.588Z,6.13
2023-05-19T02:28:40.500Z,3.47
2023-05-19T02:29:45.766Z,3.33
2023-05-19T02:30:53.118Z,3.88
2023-05-19T02:32:02.611Z,4.00
2023-05-19T02:33:08.680Z,6.85
2023-05-19T02:34:12.702Z,6.65
2023-05-19T02:35:19.326Z,3.35
2023-05-19T02:36:24.378Z,5.28
2023-05-19T02:37:29.676Z,4.95
2023-05-19T02:38:35.541Z,3.78
2023-05-19T02:39:40.011Z,4.25
2023-05-19T02:40:44.003Z,5.05
2023-05-19T02:41:50.231Z,3.75
2023-05-19T02:42:56.130Z,5.30
2023-05-19T02:44:02.125Z,5.55
2023-05-19T02:45:07.110Z,3.90
2023-05-19T02:46:13.100Z,12.10
2023-05-19T02:47:37.592Z,9.88
2023-05-19T02:48:43.098Z,6.45
2023-05-19T02:49:46.304Z,10.50
2023-05-19T02:50:52.541Z,9.88
2023-05-19T02:52:15.281Z,10.02
2023-05-19T02:53:23.562Z,5.63
2023-05-19T02:54:27.215Z,33.33
2023-05-19T02:55:34.064Z,9.25
2023-05-19T02:56:37.780Z,9.18
2023-05-19T02:57:44.320Z,4.00
2023-05-19T02:58:49.225Z,6.10
2023-05-19T02:59:55.170Z,3.80
2023-05-19T03:01:01.999Z,3.97
2023-05-19T03:02:12.149Z,8.00
2023-05-19T03:03:23.182Z,12.20
2023-05-19T03:04:30.383Z,8.60
2023-05-19T03:05:38.876Z,6.65
2023-05-19T03:06:48.331Z,7.10
2023-05-19T03:07:57.164Z,4.32
2023-05-19T03:09:06.188Z,7.78
2023-05-19T03:10:11.932Z,10.57
2023-05-19T03:11:19.256Z,4.53
2023-05-19T03:12:23.270Z,5.97
2023-05-19T03:13:29.595Z,10.75
2023-05-19T03:14:53.596Z,5.35
2023-05-19T03:15:59.425Z,6.25
2023-05-19T03:17:03.527Z,4.25
2023-05-19T03:18:11.302Z,5.53
2023-05-19T03:19:20.965Z,3.50
2023-05-19T03:20:45.288Z,5.25
2023-05-19T03:21:49.266Z,3.85
2023-05-19T03:22:53.834Z,5.30
2023-05-19T03:23:59.204Z,8.02
2023-05-19T03:25:23.023Z,5.03
2023-05-19T03:26:26.300Z,3.38
2023-05-19T03:27:34.070Z,4.88
2023-05-19T03:28:37.423Z,5.95
2023-05-19T03:29:42.770Z,8.90
2023-05-19T03:30:50.416Z,6.57
2023-05-19T03:31:55.704Z,5.13
2023-05-19T03:33:02.509Z,4.93
2023-05-19T03:34:08.467Z,10.52
2023-05-19T03:35:14.666Z,4.13
2023-05-19T03:36:20.470Z,10.13
2023-05-19T03:37:24.839Z,3.85
2023-05-19T03:38:47.755Z,10.48
2023-05-19T03:39:52.217Z,4.65
2023-05-19T03:40:57.417Z,3.97
2023-05-19T03:42:00.349Z,9.80
2023-05-19T03:43:06.295Z,4.38
2023-05-19T03:44:11.452Z,5.30
2023-05-19T03:45:34.189Z,4.63
2023-05-19T03:46:38.902Z,5.53
2023-05-19T03:47:44.413Z,5.63
2023-05-19T03:48:57.864Z,7.07
2023-05-19T03:50:05.688Z,6.65
2023-05-19T03:51:11.936Z,4.70
2023-05-19T03:52:17.550Z,5.40
2023-05-19T03:53:24.774Z,5.00
2023-05-19T03:54:30.992Z,5.63
2023-05-19T03:55:36.314Z,4.88
2023-05-19T03:56:43.455Z,4.88
2023-05-19T03:57:59.906Z,4.80
2023-05-19T03:59:07.491Z,5.63
2023-05-19T04:00:17.087Z,6.35
2023-05-19T04:02:05.762Z,5.53
2023-05-19T04:03:11.249Z,7.05
2023-05-19T04:04:16.020Z,6.63
2023-05-19T04:05:20.347Z,5.70
2023-05-19T04:06:28.838Z,9.25
2023-05-19T04:07:36.619Z,5.32
2023-05-19T04:08:41.782Z,3.70
2023-05-19T04:09:50.123Z,6.65
2023-05-19T04:10:55.708Z,5.10
2023-05-19T04:12:02.072Z,4.95
2023-05-19T04:13:11.290Z,4.53
2023-05-19T04:14:14.497Z,5.70
2023-05-19T04:15:20.256Z,7.75
2023-05-19T04:16:26.013Z,6.30
2023-05-19T04:17:32.817Z,4.28
2023-05-19T04:18:38.022Z,9.63
2023-05-19T04:19:43.225Z,9.07
2023-05-19T04:20:49.310Z,5.50
2023-05-19T04:21:58.442Z,4.93
2023-05-19T04:23:02.447Z,3.83
2023-05-19T04:24:09.078Z,4.60
2023-05-19T04:25:13.853Z,15.20
2023-05-19T04:26:20.846Z,5.28
2023-05-19T04:27:28.352Z,4.10
2023-05-19T04:28:53.687Z,7.18
2023-05-19T04:29:58.674Z,9.13
2023-05-19T04:31:23.619Z,6.90
2023-05-19T04:32:29.496Z,8.32
2023-05-19T04:33:36.388Z,8.18
2023-05-19T04:34:42.282Z,10.40
2023-05-19T04:35:50.956Z,15.65
2023-05-19T04:36:58.117Z,8.68
2023-05-19T04:38:03.585Z,4.35
2023-05-19T04:39:10.343Z,5.97
2023-05-19T04:40:16.639Z,4.88
2023-05-19T04:41:24.188Z,6.32
2023-05-19T04:42:49.967Z,6.82
2023-05-19T04:43:54.769Z,4.10
2023-05-19T04:45:00.297Z,5.53
2023-05-19T04:46:07.210Z,5.57
2023-05-19T04:47:13.841Z,3.80
2023-05-19T04:48:18.784Z,3.78
2023-05-19T04:49:44.295Z,4.40
2023-05-19T04:50:50.128Z,4.15
2023-05-19T04:51:57.466Z,6.38
2023-05-19T04:53:05.332Z,7.22
2023-05-19T04:54:10.804Z,4.00
2023-05-19T04:55:14.400Z,5.72
2023-05-19T04:56:37.398Z,4.75
2023-05-19T04:57:42.674Z,5.55
2023-05-19T04:58:47.647Z,9.18
2023-05-19T04:59:51.409Z,4.70
2023-05-19T05:01:16.060Z,8.90
2023-05-19T05:02:22.053Z,6.20
2023-05-19T05:03:28.551Z,5.70
2023-05-19T05:04:33.724Z,8.32
2023-05-19T05:05:38.424Z,6.40
2023-05-19T05:07:02.724Z,4.70
2023-05-19T05:08:08.443Z,6.93
2023-05-19T05:09:13.858Z,5.40
2023-05-19T05:10:19.724Z,5.82
2023-05-19T05:11:27.659Z,7.15
2023-05-19T05:12:33.739Z,4.95
2023-05-19T05:13:40.801Z,6.03
2023-05-19T05:14:45.684Z,4.85
2023-05-19T05:15:52.923Z,3.60
2023-05-19T05:16:58.139Z,5.47
2023-05-19T05:18:05.106Z,6.90
2023-05-19T05:19:30.029Z,9.63
2023-05-19T05:20:36.509Z,6.97
2023-05-19T05:21:42.552Z,7.03
2023-05-19T05:22:56.050Z,5.32
2023-05-19T05:24:00.602Z,5.43
2023-05-19T05:25:07.428Z,5.80
2023-05-19T05:26:18.214Z,6.65
2023-05-19T05:27:23.423Z,4.00
2023-05-19T05:28:27.427Z,6.60
2023-05-19T05:29:32.727Z,6.13
2023-05-19T05:30:38.061Z,3.72
2023-05-19T05:31:44.242Z,5.30
2023-05-19T05:32:48.365Z,7.70
2023-05-19T05:33:53.447Z,6.75
2023-05-19T05:34:58.867Z,3.95
2023-05-19T05:36:03.103Z,4.85
2023-05-19T05:37:10.354Z,7.20
2023-05-19T05:38:15.692Z,8.25
2023-05-19T05:39:23.386Z,4.10
2023-05-19T05:40:29.829Z,5.35
2023-05-19T05:41:42.173Z,5.00
2023-05-19T05:42:45.750Z,4.22
2023-05-19T05:44:08.826Z,5.25
2023-05-19T05:45:13.988Z,3.70
2023-05-19T05:46:20.136Z,5.30
2023-05-19T05:47:24.178Z,5.03
2023-05-19T05:48:30.083Z,4.75
2023-05-19T05:49:39.774Z,4.00
2023-05-19T05:50:46.210Z,3.83
2023-05-19T05:52:01.883Z,3.90
2023-05-19T05:53:15.642Z,3.90
2023-05-19T05:54:25.022Z,3.40
2023-05-19T05:55:51.164Z,5.65
2023-05-19T05:56:55.903Z,7.18
2023-05-19T05:58:02.594Z,4.28
2023-05-19T05:59:06.723Z,4.07
2023-05-19T06:00:15.983Z,3.70
2023-05-19T06:01:21.778Z,4.65
2023-05-19T06:02:26.603Z,5.18
2023-05-19T06:03:29.919Z,4.80
2023-05-19T06:04:35.127Z,5.22
2023-05-19T06:05:39.904Z,7.32
2023-05-19T06:07:05.138Z,5.70
2023-05-19T06:08:09.550Z,6.18
2023-05-19T06:09:16.031Z,4.93
2023-05-19T06:10:22.593Z,5.35
2023-05-19T06:11:27.460Z,5.72
2023-05-19T06:12:31.018Z,4.43
2023-05-19T06:13:37.406Z,4.40
2023-05-19T06:14:40.607Z,4.15
2023-05-19T06:15:46.253Z,3.72
2023-05-19T06:16:50.298Z,5.00
2023-05-19T06:18:15.387Z,7.72
2023-05-19T06:19:20.363Z,3.95
2023-05-19T06:20:45.803Z,3.50
2023-05-19T06:21:50.411Z,4.63
2023-05-19T06:22:56.515Z,5.60
2023-05-19T06:24:01.049Z,5.15
2023-05-19T06:25:06.700Z,3.83
2023-05-19T06:26:30.158Z,4.65
2023-05-19T06:27:36.149Z,5.70
2023-05-19T06:28:42.904Z,5.07
2023-05-19T06:29:48.174Z,6.72
2023-05-19T06:30:52.605Z,3.80
2023-05-19T06:31:57.833Z,4.53
2023-05-19T06:33:05.156Z,6.10
2023-05-19T06:34:13.303Z,4.35
2023-05-19T06:35:18.458Z,3.97
2023-05-19T06:36:25.325Z,4.88
2023-05-19T06:37:30.431Z,8.23
2023-05-19T06:38:36.664Z,11.52
2023-05-19T06:39:42.794Z,5.22
2023-05-19T06:41:06.820Z,8.13
2023-05-19T06:42:12.834Z,6.10
2023-05-19T06:43:21.284Z,6.25
2023-05-19T06:44:45.465Z,5.10
2023-05-19T06:45:50.278Z,7.38
2023-05-19T06:46:55.725Z,6.95
2023-05-19T06:48:01.046Z,5.95
2023-05-19T06:49:23.609Z,5.43
2023-05-19T06:50:29.165Z,8.18
2023-05-19T06:51:33.005Z,5.72
2023-05-19T06:52:39.436Z,5.78
2023-05-19T06:54:03.239Z,6.68
2023-05-19T06:55:08.945Z,5.65
2023-05-19T06:56:15.863Z,4.45
2023-05-19T06:57:22.511Z,6.65
2023-05-19T06:58:29.193Z,5.60
2023-05-19T06:59:33.433Z,5.93
2023-05-19T07:00:39.377Z,5.05
2023-05-19T07:01:43.951Z,4.70
2023-05-19T07:02:50.327Z,6.60
2023-05-19T07:03:54.748Z,7.05
2023-05-19T07:05:01.176Z,7.45
2023-05-19T07:06:07.703Z,8.07
2023-05-19T07:07:13.995Z,236.82
2023-05-19T07:08:18.362Z,687.88
2023-05-19T07:09:23.916Z,592.47
2023-05-19T07:10:28.039Z,544.13
2023-05-19T07:11:34.602Z,393.52
2023-05-19T07:12:41.979Z,246.88
2023-05-19T07:13:46.168Z,6.80
2023-05-19T07:15:11.170Z,65.90
2023-05-19T07:16:16.559Z,10.13
2023-05-19T07:17:25.166Z,6.03
2023-05-19T07:18:32.852Z,6.32
2023-05-19T07:19:37.842Z,6.38
2023-05-19T07:20:43.755Z,6.25
2023-05-19T07:21:50.065Z,5.53
2023-05-19T07:22:56.105Z,11.00
2023-05-19T07:24:01.176Z,8.10
2023-05-19T07:25:07.218Z,5.22
2023-05-19T07:26:11.463Z,8.10
2023-05-19T07:27:17.735Z,4.40
2023-05-19T07:28:23.469Z,6.18
2023-05-19T07:29:29.164Z,5.25
2023-05-19T07:30:35.057Z,7.93
2023-05-19T07:31:40.735Z,6.00
2023-05-19T07:32:47.741Z,4.60
2023-05-19T07:33:54.536Z,6.38
2023-05-19T07:35:00.248Z,5.40
2023-05-19T07:36:04.874Z,5.40
2023-05-19T07:37:28.435Z,7.95
2023-05-19T07:38:35.919Z,6.30
2023-05-19T07:39:43.614Z,5.28
2023-05-19T07:41:07.032Z,3.72
2023-05-19T07:42:13.976Z,4.55
2023-05-19T07:43:39.700Z,5.78
2023-05-19T07:44:43.967Z,5.15
2023-05-19T07:45:49.488Z,5.90
2023-05-19T07:46:54.242Z,4.60
2023-05-19T07:48:00.556Z,5.10
2023-05-19T07:49:06.743Z,4.20
2023-05-19T07:50:13.524Z,4.53
2023-05-19T07:51:17.216Z,4.18
2023-05-19T07:52:39.927Z,4.38
2023-05-19T07:53:44.989Z,4.40
2023-05-19T07:54:51.227Z,3.28
2023-05-19T07:55:57.075Z,6.25
2023-05-19T07:57:04.324Z,7.13
2023-05-19T07:58:10.069Z,4.85
2023-05-19T07:59:17.586Z,3.72
2023-05-19T08:00:22.185Z,6.93
2023-05-19T08:01:29.739Z,4.22
2023-05-19T08:02:36.522Z,3.88
2023-05-19T08:03:43.200Z,6.75
2023-05-19T08:04:48.921Z,4.50
2023-05-19T08:05:53.466Z,8.57
2023-05-19T08:06:56.571Z,4.35
2023-05-19T08:08:03.246Z,5.95
2023-05-19T08:09:08.670Z,4.20
2023-05-19T08:10:13.418Z,3.05
2023-05-19T08:11:19.963Z,3.60
2023-05-19T08:12:24.763Z,4.13
2023-05-19T08:13:29.434Z,4.03
2023-05-19T08:14:36.326Z,5.40
2023-05-19T08:15:39.613Z,3.42
2023-05-19T08:16:46.165Z,4.07
2023-05-19T08:17:51.150Z,2.92
2023-05-19T08:19:11.090Z,4.72
2023-05-19T08:20:15.206Z,4.30
2023-05-19T08:21:20.253Z,4.20
2023-05-19T08:22:26.632Z,4.40
2023-05-19T08:23:30.434Z,3.95
2023-05-19T08:24:35.903Z,3.95
2023-05-19T08:25:41.897Z,4.95
2023-05-19T08:26:46.861Z,3.70
2023-05-19T08:27:50.821Z,3.05
2023-05-19T08:28:55.941Z,3.25
2023-05-19T08:30:01.059Z,3.00
2023-05-19T08:31:06.828Z,3.75
2023-05-19T08:32:13.039Z,3.20
2023-05-19T08:33:21.198Z,3.97
2023-05-19T08:34:26.669Z,3.30
2023-05-19T08:35:32.736Z,6.57
2023-05-19T08:36:39.966Z,4.40
2023-05-19T08:37:45.467Z,3.58
2023-05-19T08:38:51.212Z,3.45
2023-05-19T08:39:57.426Z,4.70
2023-05-19T08:41:02.486Z,7.30
2023-05-19T08:42:10.272Z,7.28
2023-05-19T08:43:14.872Z,3.17
2023-05-19T08:44:19.463Z,5.47
2023-05-19T08:45:30.103Z,4.88
2023-05-19T08:46:35.457Z,3.70
2023-05-19T08:47:40.239Z,3.50
2023-05-19T08:48:50.124Z,3.65
2023-05-19T08:49:56.970Z,4.20
2023-05-19T08:51:09.436Z,3.78
2023-05-19T08:52:24.929Z,5.13
2023-05-19T08:53:34.803Z,4.95
2023-05-19T08:54:45.519Z,3.58
2023-05-19T08:55:59.912Z,3.97
2023-05-19T08:57:05.748Z,2.60
2023-05-19T08:58:10.794Z,7.40
2023-05-19T08:59:15.112Z,6.13
2023-05-19T09:00:20.984Z,5.28
2023-05-19T09:01:31.951Z,3.53
2023-05-19T09:02:37.141Z,4.85
2023-05-19T09:04:00.641Z,3.63
2023-05-19T09:05:04.941Z,4.25
2023-05-19T09:06:09.549Z,4.28
2023-05-19T09:07:15.415Z,4.00
2023-05-19T09:08:19.702Z,3.80
2023-05-19T09:09:23.889Z,3.88
2023-05-19T09:10:29.217Z,3.10
2023-05-19T09:11:34.559Z,3.17
2023-05-19T09:12:57.654Z,3.20
2023-05-19T09:14:02.288Z,7.25
2023-05-19T09:15:08.986Z,3.65
2023-05-19T09:16:14.667Z,4.82
2023-05-19T09:17:23.334Z,5.35
2023-05-19T09:18:28.949Z,7.35
2023-05-19T09:19:32.622Z,3.92
2023-05-19T09:20:40.008Z,4.30
2023-05-19T09:21:46.822Z,8.63
2023-05-19T09:22:50.899Z,6.07
2023-05-19T09:23:56.169Z,4.57
2023-05-19T09:25:01.132Z,7.25
2023-05-19T09:26:08.199Z,3.67
2023-05-19T09:27:16.958Z,4.85
2023-05-19T09:28:29.859Z,5.00
2023-05-19T09:29:33.029Z,7.30
2023-05-19T09:30:37.443Z,6.22
2023-05-19T09:32:01.259Z,2.90
2023-05-19T09:33:10.436Z,4.20
2023-05-19T09:34:16.278Z,4.22
2023-05-19T09:35:38.918Z,13.32
2023-05-19T09:36:42.514Z,5.00
2023-05-19T09:38:06.915Z,3.83
2023-05-19T09:40:39.060Z,4.18
2023-05-19T09:41:43.201Z,4.30
2023-05-19T09:42:49.012Z,4.38
2023-05-19T09:44:16.143Z,4.57
2023-05-19T09:45:23.710Z,5.07
2023-05-19T09:46:50.648Z,6.03
2023-05-19T09:47:55.681Z,4.50
2023-05-19T09:48:59.278Z,8.40
2023-05-19T09:50:04.071Z,10.30
2023-05-19T09:51:11.146Z,5.75
2023-05-19T09:52:18.717Z,4.13
2023-05-19T09:53:41.114Z,9.10
2023-05-19T09:54:45.507Z,4.22
2023-05-19T09:55:52.868Z,3.85
2023-05-19T09:57:00.325Z,4.22
2023-05-19T09:58:24.463Z,5.93
2023-05-19T09:59:30.480Z,4.40
2023-05-19T10:00:37.510Z,7.40
2023-05-19T10:01:41.930Z,4.68
2023-05-19T10:02:49.148Z,4.53
2023-05-19T10:03:54.232Z,6.55
2023-05-19T10:04:59.438Z,3.90
2023-05-19T10:06:07.688Z,5.53
2023-05-19T10:07:14.625Z,5.47
2023-05-19T10:08:19.284Z,3.67
2023-05-19T10:09:32.777Z,5.88
2023-05-19T10:10:36.900Z,7.47
2023-05-19T10:12:00.524Z,4.00
2023-05-19T10:13:06.340Z,3.38
2023-05-19T10:14:12.474Z,5.82
2023-05-19T10:15:40.744Z,4.57
2023-05-19T10:16:53.059Z,4.30
2023-05-19T10:18:19.535Z,4.18
2023-05-19T10:19:23.762Z,3.67
2023-05-19T10:20:28.499Z,3.80
2023-05-19T10:21:41.434Z,4.00
2023-05-19T10:22:46.470Z,5.65
2023-05-19T10:24:10.490Z,5.22
2023-05-19T10:25:19.553Z,5.63
2023-05-19T10:26:27.340Z,4.93
2023-05-19T10:27:33.631Z,3.78
2023-05-19T10:28:46.992Z,7.32
2023-05-19T10:29:53.263Z,7.63
2023-05-19T10:31:03.224Z,6.82
2023-05-19T10:32:12.624Z,4.40
2023-05-19T10:33:18.534Z,4.00
2023-05-19T10:34:40.699Z,4.68
2023-05-19T10:36:03.318Z,6.10
2023-05-19T10:37:15.623Z,3.70
2023-05-19T10:38:30.622Z,3.90
2023-05-19T10:39:36.942Z,4.57
2023-05-19T10:40:51.992Z,4.93
2023-05-19T10:42:06.410Z,3.40
2023-05-19T10:43:23.407Z,4.32
2023-05-19T10:44:42.577Z,4.15
2023-05-19T10:45:50.711Z,4.72
2023-05-19T10:46:56.716Z,4.68
2023-05-19T10:48:01.226Z,4.30
2023-05-19T10:49:05.952Z,4.93
2023-05-19T10:50:12.017Z,5.18
2023-05-19T10:51:17.616Z,5.18
2023-05-19T10:52:22.348Z,4.93
2023-05-19T10:53:33.513Z,4.78
2023-05-19T10:54:47.525Z,4.22
2023-05-19T10:55:56.505Z,4.35
2023-05-19T10:56:59.568Z,4.35
2023-05-19T10:58:04.390Z,6.97
2023-05-19T10:59:31.251Z,3.78
2023-05-19T11:00:36.591Z,3.83
2023-05-19T11:01:42.708Z,6.70
2023-05-19T11:02:46.408Z,3.58
2023-05-19T11:03:52.471Z,3.90
2023-05-19T11:04:58.683Z,6.00
2023-05-19T11:06:29.835Z,3.72
2023-05-19T11:07:33.288Z,4.72
2023-05-19T11:08:38.758Z,5.05
2023-05-19T11:09:43.740Z,3.83
2023-05-19T11:10:48.464Z,4.70
2023-05-19T11:11:53.574Z,3.65
2023-05-19T11:12:59.691Z,4.70
2023-05-19T11:14:05.902Z,5.88
2023-05-19T11:15:13.302Z,5.55
2023-05-19T11:16:22.543Z,7.13
2023-05-19T11:17:27.709Z,4.50
2023-05-19T11:18:34.467Z,8.73
2023-05-19T11:19:38.050Z,3.92
2023-05-19T11:20:42.388Z,3.50
2023-05-19T11:21:50.795Z,4.38
2023-05-19T11:23:08.169Z,3.08
2023-05-19T11:24:32.565Z,4.00
2023-05-19T11:25:47.678Z,4.55
2023-05-19T11:26:52.029Z,4.50
2023-05-19T11:27:55.786Z,3.53
2023-05-19T11:29:00.612Z,3.78
2023-05-19T11:30:15.483Z,4.53
2023-05-19T11:31:23.368Z,4.25
2023-05-19T11:32:31.965Z,5.30
2023-05-19T11:33:37.654Z,4.60
2023-05-19T11:34:41.175Z,3.88
2023-05-19T11:35:47.313Z,4.25
2023-05-19T11:36:54.945Z,4.40
2023-05-19T11:38:18.208Z,3.67
2023-05-19T11:39:41.979Z,5.30
2023-05-19T11:40:47.938Z,3.85
2023-05-19T11:41:52.515Z,3.85
2023-05-19T11:42:56.312Z,4.20
2023-05-19T11:44:00.165Z,5.63
2023-05-19T11:45:29.122Z,5.83
2023-05-19T11:46:33.931Z,4.05
2023-05-19T11:47:51.675Z,3.35
2023-05-19T11:49:03.133Z,3.70
2023-05-19T11:50:07.848Z,4.30
2023-05-19T11:51:30.355Z,3.45
2023-05-19T11:52:34.760Z,3.33
2023-05-19T11:53:38.719Z,3.65
2023-05-19T11:55:02.686Z,4.13
2023-05-19T11:56:07.425Z,7.57
2023-05-19T11:57:30.640Z,5.40
2023-05-19T11:58:34.328Z,3.28
2023-05-19T11:59:44.313Z,6.03
2023-05-19T12:00:49.760Z,4.10
2023-05-19T12:01:52.929Z,4.22
2023-05-19T12:03:15.306Z,3.40
2023-05-19T12:04:20.507Z,4.73
2023-05-19T12:05:47.771Z,3.35
2023-05-19T12:06:51.181Z,3.58
2023-05-19T12:07:55.271Z,3.72
2023-05-19T12:09:20.149Z,4.68
2023-05-19T12:10:24.115Z,3.70
2023-05-19T12:11:32.292Z,4.90
2023-05-19T12:12:36.034Z,4.13
2023-05-19T12:13:41.146Z,4.00
2023-05-19T12:14:44.904Z,3.25
2023-05-19T12:15:54.273Z,4.55
2023-05-19T12:16:58.154Z,3.50
2023-05-19T12:18:04.170Z,4.90
2023-05-19T12:19:07.472Z,4.37
2023-05-19T12:20:13.912Z,5.35
2023-05-19T12:21:18.966Z,5.37
2023-05-19T12:22:22.484Z,5.00
2023-05-19T12:23:27.532Z,3.08
2023-05-19T12:24:31.829Z,3.73
2023-05-19T12:25:37.406Z,4.43
2023-05-19T12:26:43.545Z,5.22
2023-05-19T12:27:48.981Z,3.30
2023-05-19T12:28:54.119Z,5.20
2023-05-19T12:29:57.871Z,3.50
2023-05-19T12:31:04.498Z,4.72
2023-05-19T12:32:09.343Z,5.30
2023-05-19T12:33:17.434Z,3.63
2023-05-19T12:34:22.148Z,6.17
2023-05-19T12:35:29.372Z,3.50
2023-05-19T12:36:33.267Z,2.70
2023-05-19T12:37:43.046Z,3.55
2023-05-19T12:38:48.458Z,3.37
2023-05-19T12:39:53.834Z,3.55
2023-05-19T12:41:01.295Z,4.30
2023-05-19T12:42:08.168Z,3.50
2023-05-19T12:43:23.686Z,3.75
2023-05-19T12:44:28.957Z,3.37
2023-05-19T12:45:37.543Z,7.07
2023-05-19T12:46:43.998Z,3.23
2023-05-19T12:47:51.486Z,2.97
2023-05-19T12:49:03.501Z,3.92
2023-05-19T12:50:10.427Z,4.03
2023-05-19T12:51:18.914Z,4.43
2023-05-19T12:52:25.147Z,3.40
2023-05-19T12:53:29.906Z,2.77
2023-05-19T12:54:36.623Z,3.20
2023-05-19T12:55:43.624Z,3.07
2023-05-19T12:56:53.509Z,3.03
2023-05-19T12:58:00.122Z,3.67
2023-05-19T12:59:04.772Z,4.40
2023-05-19T13:00:17.829Z,5.90
2023-05-19T13:01:25.733Z,3.03
2023-05-19T13:02:31.624Z,3.70
2023-05-19T13:03:43.895Z,3.40
2023-05-19T13:04:49.428Z,3.87
2023-05-19T13:05:54.154Z,3.70
2023-05-19T13:06:57.867Z,3.73
2023-05-19T13:08:04.242Z,3.10
2023-05-19T13:09:08.674Z,3.20
2023-05-19T13:10:13.578Z,3.13
2023-05-19T13:11:17.760Z,4.10
2023-05-19T13:12:22.520Z,4.10
2023-05-19T13:13:26.528Z,5.57
2023-05-19T13:14:30.931Z,3.50
2023-05-19T13:15:36.973Z,2.93
2023-05-19T13:16:41.810Z,4.63
2023-05-19T13:17:47.356Z,3.27
2023-05-19T13:18:54.934Z,2.57
2023-05-19T13:19:57.963Z,3.90
2023-05-19T13:21:05.395Z,7.00
2023-05-19T13:22:10.366Z,4.00
2023-05-19T13:23:15.893Z,4.73
2023-05-19T13:24:20.394Z,4.40
2023-05-19T13:25:25.003Z,2.20
2023-05-19T13:26:30.997Z,2.63
2023-05-19T13:27:35.160Z,3.57
2023-05-19T13:28:39.651Z,2.43
2023-05-19T13:29:44.360Z,2.73
2023-05-19T13:30:50.177Z,3.10
2023-05-19T13:31:54.937Z,3.40
2023-05-19T13:33:03.290Z,4.43
2023-05-19T13:34:08.880Z,2.77
2023-05-19T13:35:12.638Z,4.47
2023-05-19T13:36:18.020Z,4.17
2023-05-19T13:37:22.572Z,3.57
2023-05-19T13:38:30.779Z,2.63
2023-05-19T13:39:34.569Z,2.93
2023-05-19T13:40:40.516Z,3.93
2023-05-19T13:41:44.480Z,2.83
2023-05-19T13:42:49.723Z,2.60
2023-05-19T13:43:56.930Z,3.53
2023-05-19T13:45:01.280Z,3.93
2023-05-19T13:46:08.203Z,4.10
2023-05-19T13:47:12.858Z,3.30
2023-05-19T13:48:21.371Z,4.53
2023-05-19T13:49:25.652Z,5.20
2023-05-19T13:50:31.477Z,3.07
2023-05-19T13:51:35.225Z,3.03
2023-05-19T13:52:40.481Z,3.13
2023-05-19T13:53:46.705Z,2.83
2023-05-19T13:54:50.131Z,3.50
2023-05-19T13:55:57.226Z,2.80
2023-05-19T13:57:01.172Z,3.07
2023-05-19T13:58:06.710Z,3.93
2023-05-19T13:59:10.033Z,3.67
2023-05-19T14:00:16.639Z,2.80
2023-05-19T14:01:32.844Z,3.07
2023-05-19T14:02:39.196Z,3.17
2023-05-19T14:03:47.714Z,2.67
2023-05-19T14:04:53.087Z,2.90
2023-05-19T14:05:58.475Z,2.63
2023-05-19T14:07:03.558Z,3.40
2023-05-19T14:08:09.852Z,2.80
2023-05-19T14:09:14.699Z,3.47
2023-05-19T14:10:20.694Z,2.60
2023-05-19T14:11:25.593Z,5.03
2023-05-19T14:12:38.049Z,3.20
2023-05-19T14:13:52.734Z,2.83
2023-05-19T14:14:58.658Z,5.00
2023-05-19T14:16:06.103Z,4.20
2023-05-19T14:17:12.366Z,2.97
2023-05-19T14:18:20.761Z,4.70
2023-05-19T14:19:30.837Z,2.53
2023-05-19T14:20:35.413Z,3.60
2023-05-19T14:21:41.366Z,3.30
2023-05-19T14:22:46.926Z,2.40
2023-05-19T14:23:50.826Z,6.50
2023-05-19T14:24:57.476Z,3.53
2023-05-19T14:26:01.607Z,3.67
2023-05-19T14:27:08.502Z,2.90
2023-05-19T14:28:14.404Z,6.20
2023-05-19T14:29:20.011Z,3.63
2023-05-19T14:30:25.516Z,2.83
2023-05-19T14:31:30.168Z,3.00
2023-05-19T14:32:35.368Z,5.80
2023-05-19T14:33:41.980Z,3.17
2023-05-19T14:34:53.565Z,2.90
2023-05-19T14:36:00.926Z,3.20
2023-05-19T14:37:07.532Z,3.80
2023-05-19T14:38:13.588Z,3.10
2023-05-19T14:39:19.634Z,3.80
2023-05-19T14:40:26.603Z,5.97
2023-05-19T14:41:32.397Z,3.30
2023-05-19T14:42:38.020Z,2.90
2023-05-19T14:43:47.061Z,4.07
2023-05-19T14:44:56.666Z,4.40
2023-05-19T14:46:02.638Z,4.60
2023-05-19T14:47:09.792Z,5.90
2023-05-19T14:48:15.864Z,3.93
2023-05-19T14:49:20.820Z,3.40
2023-05-19T14:50:31.532Z,3.13
2023-05-19T14:51:36.138Z,2.90
2023-05-19T14:52:41.600Z,3.00
2023-05-19T14:53:48.216Z,2.90
2023-05-19T14:54:52.702Z,2.60
2023-05-19T14:55:59.255Z,3.70
2023-05-19T14:57:03.619Z,2.93
2023-05-19T14:58:19.973Z,3.70
2023-05-19T14:59:34.564Z,3.00
2023-05-19T15:00:39.399Z,2.60
2023-05-19T15:01:45.227Z,3.20
2023-05-19T15:02:50.519Z,6.50
2023-05-19T15:03:56.393Z,2.87
2023-05-19T15:05:01.275Z,3.40
2023-05-19T15:06:12.574Z,7.63
2023-05-19T15:07:18.184Z,3.27
2023-05-19T15:08:25.027Z,3.80
2023-05-19T15:09:30.742Z,5.20
2023-05-19T15:10:36.628Z,3.60